sensor_id;sensor_type;location;lat;lon;timestamp;pressure;altitude;pressure_sealevel;temperature;humidity
84859;BME280;75115;42.984;23.244;2024-01-30T00:02:15;97309.56;;;-1.53;60.14
84859;BME280;75115;42.984;23.244;2024-01-30T00:04:40;97313.50;;;-1.70;61.71
84859;BME280;75115;42.984;23.244;2024-01-30T00:07:05;97312.75;;;-1.72;60.50
84859;BME280;75115;42.984;23.244;2024-01-30T00:09:31;97316.88;;;-1.70;60.36
84859;BME280;75115;42.984;23.244;2024-01-30T00:11:56;97311.94;;;-1.74;60.74
84859;BME280;75115;42.984;23.244;2024-01-30T00:14:22;97316.19;;;-1.75;61.14
84859;BME280;75115;42.984;23.244;2024-01-30T00:16:48;97319.41;;;-1.68;60.33
84859;BME280;75115;42.984;23.244;2024-01-30T00:19:14;97310.81;;;-1.66;60.44
84859;BME280;75115;42.984;23.244;2024-01-30T00:21:39;97309.09;;;-1.64;59.98
84859;BME280;75115;42.984;23.244;2024-01-30T00:24:04;97312.47;;;-1.65;61.05
84859;BME280;75115;42.984;23.244;2024-01-30T00:26:30;97308.56;;;-1.75;61.35
84859;BME280;75115;42.984;23.244;2024-01-30T00:28:55;97302.38;;;-1.66;61.39
84859;BME280;75115;42.984;23.244;2024-01-30T00:31:21;97308.50;;;-1.73;61.53
84859;BME280;75115;42.984;23.244;2024-01-30T00:33:46;97306.69;;;-1.68;62.20
84859;BME280;75115;42.984;23.244;2024-01-30T00:36:12;97304.91;;;-1.66;61.73
84859;BME280;75115;42.984;23.244;2024-01-30T00:38:38;97305.72;;;-1.64;60.54
84859;BME280;75115;42.984;23.244;2024-01-30T00:41:03;97302.75;;;-1.52;61.23
84859;BME280;75115;42.984;23.244;2024-01-30T00:43:29;97300.66;;;-1.66;60.86
84859;BME280;75115;42.984;23.244;2024-01-30T00:45:54;97301.59;;;-1.68;61.16
84859;BME280;75115;42.984;23.244;2024-01-30T00:48:20;97306.53;;;-1.64;60.65
84859;BME280;75115;42.984;23.244;2024-01-30T00:50:46;97297.72;;;-1.82;60.92
84859;BME280;75115;42.984;23.244;2024-01-30T00:53:11;97305.13;;;-1.72;60.74
84859;BME280;75115;42.984;23.244;2024-01-30T00:55:37;97305.72;;;-1.64;60.81
84859;BME280;75115;42.984;23.244;2024-01-30T00:58:02;97301.31;;;-1.61;60.71
84859;BME280;75115;42.984;23.244;2024-01-30T01:00:28;97293.00;;;-1.66;61.17
84859;BME280;75115;42.984;23.244;2024-01-30T01:02:57;97300.50;;;-1.61;60.43
84859;BME280;75115;42.984;23.244;2024-01-30T01:05:23;97297.94;;;-1.60;60.68
84859;BME280;75115;42.984;23.244;2024-01-30T01:07:48;97301.38;;;-1.62;60.98
84859;BME280;75115;42.984;23.244;2024-01-30T01:10:14;97303.09;;;-1.63;60.24
84859;BME280;75115;42.984;23.244;2024-01-30T01:12:41;97299.81;;;-1.66;60.53
84859;BME280;75115;42.984;23.244;2024-01-30T01:15:07;97304.03;;;-1.65;61.11
84859;BME280;75115;42.984;23.244;2024-01-30T01:17:35;97309.16;;;-1.67;61.47
84859;BME280;75115;42.984;23.244;2024-01-30T01:20:03;97313.22;;;-1.61;61.12
84859;BME280;75115;42.984;23.244;2024-01-30T01:22:30;97308.28;;;-1.66;61.41
84859;BME280;75115;42.984;23.244;2024-01-30T01:24:56;97300.78;;;-1.70;61.39
84859;BME280;75115;42.984;23.244;2024-01-30T01:27:21;97299.06;;;-1.70;61.01
84859;BME280;75115;42.984;23.244;2024-01-30T01:29:46;97300.47;;;-1.60;60.95
84859;BME280;75115;42.984;23.244;2024-01-30T01:32:12;97292.94;;;-1.63;60.61
84859;BME280;75115;42.984;23.244;2024-01-30T01:34:37;97299.59;;;-1.59;61.25
84859;BME280;75115;42.984;23.244;2024-01-30T01:37:03;97291.22;;;-1.62;61.10
84859;BME280;75115;42.984;23.244;2024-01-30T01:39:29;97299.72;;;-1.63;60.29
84859;BME280;75115;42.984;23.244;2024-01-30T01:41:54;97290.31;;;-1.61;61.32
84859;BME280;75115;42.984;23.244;2024-01-30T01:44:20;97296.38;;;-1.65;60.15
84859;BME280;75115;42.984;23.244;2024-01-30T01:46:45;97288.91;;;-1.70;59.25
84859;BME280;75115;42.984;23.244;2024-01-30T01:49:11;97295.41;;;-1.61;59.68
84859;BME280;75115;42.984;23.244;2024-01-30T01:51:37;97295.53;;;-1.64;59.46
84859;BME280;75115;42.984;23.244;2024-01-30T01:54:05;97281.03;;;-1.62;59.46
84859;BME280;75115;42.984;23.244;2024-01-30T01:56:31;97280.97;;;-1.61;59.03
84859;BME280;75115;42.984;23.244;2024-01-30T01:59:06;97286.13;;;-1.62;59.38
84859;BME280;75115;42.984;23.244;2024-01-30T02:01:37;97296.06;;;-1.55;58.39
84859;BME280;75115;42.984;23.244;2024-01-30T02:04:04;97286.94;;;-1.62;59.14
84859;BME280;75115;42.984;23.244;2024-01-30T02:06:31;97289.34;;;-1.57;58.72
84859;BME280;75115;42.984;23.244;2024-01-30T02:08:57;97270.78;;;-1.61;59.46
84859;BME280;75115;42.984;23.244;2024-01-30T02:11:22;97280.97;;;-1.61;59.46
84859;BME280;75115;42.984;23.244;2024-01-30T02:13:48;97282.44;;;-1.54;57.52
84859;BME280;75115;42.984;23.244;2024-01-30T02:16:14;97281.53;;;-1.51;58.07
84859;BME280;75115;42.984;23.244;2024-01-30T02:18:39;97274.91;;;-1.57;58.70
84859;BME280;75115;42.984;23.244;2024-01-30T02:21:10;97269.97;;;-1.61;57.60
84859;BME280;75115;42.984;23.244;2024-01-30T02:23:36;97286.78;;;-1.56;58.13
84859;BME280;75115;42.984;23.244;2024-01-30T02:26:03;97270.84;;;-1.62;57.98
84859;BME280;75115;42.984;23.244;2024-01-30T02:28:28;97280.28;;;-1.66;59.02
84859;BME280;75115;42.984;23.244;2024-01-30T02:30:53;97282.69;;;-1.61;58.25
84859;BME280;75115;42.984;23.244;2024-01-30T02:33:19;97282.69;;;-1.61;58.48
84859;BME280;75115;42.984;23.244;2024-01-30T02:35:44;97286.28;;;-1.67;58.33
84859;BME280;75115;42.984;23.244;2024-01-30T02:38:10;97278.41;;;-1.59;57.59
84859;BME280;75115;42.984;23.244;2024-01-30T02:40:35;97281.72;;;-1.57;56.92
84859;BME280;75115;42.984;23.244;2024-01-30T02:43:01;97278.50;;;-1.62;55.16
84859;BME280;75115;42.984;23.244;2024-01-30T02:45:27;97281.72;;;-1.57;56.25
84859;BME280;75115;42.984;23.244;2024-01-30T02:47:52;97281.91;;;-1.63;56.01
84859;BME280;75115;42.984;23.244;2024-01-30T02:50:18;97279.38;;;-1.63;55.11
84859;BME280;75115;42.984;23.244;2024-01-30T02:52:43;97297.97;;;-1.61;54.58
84859;BME280;75115;42.984;23.244;2024-01-30T02:55:09;97287.75;;;-1.60;55.11
84859;BME280;75115;42.984;23.244;2024-01-30T02:57:35;97280.00;;;-1.57;55.78
84859;BME280;75115;42.984;23.244;2024-01-30T03:00:00;97277.22;;;-1.49;56.44
84859;BME280;75115;42.984;23.244;2024-01-30T03:02:26;97281.41;;;-1.48;56.59
84859;BME280;75115;42.984;23.244;2024-01-30T03:04:51;97276.28;;;-1.46;56.18
84859;BME280;75115;42.984;23.244;2024-01-30T03:07:16;97279.00;;;-1.51;56.71
84859;BME280;75115;42.984;23.244;2024-01-30T03:09:42;97279.84;;;-1.52;55.92
84859;BME280;75115;42.984;23.244;2024-01-30T03:12:09;97282.97;;;-1.44;55.29
84859;BME280;75115;42.984;23.244;2024-01-30T03:14:34;97287.53;;;-1.54;56.37
84859;BME280;75115;42.984;23.244;2024-01-30T03:17:00;97288.66;;;-1.62;56.79
84859;BME280;75115;42.984;23.244;2024-01-30T03:19:25;97280.81;;;-1.56;56.48
84859;BME280;75115;42.984;23.244;2024-01-30T03:21:50;97286.47;;;-1.46;57.08
84859;BME280;75115;42.984;23.244;2024-01-30T03:24:16;97282.13;;;-1.43;55.96
84859;BME280;75115;42.984;23.244;2024-01-30T03:26:42;97282.13;;;-1.43;55.71
84859;BME280;75115;42.984;23.244;2024-01-30T03:29:08;97274.56;;;-1.46;55.74
84859;BME280;75115;42.984;23.244;2024-01-30T03:31:34;97266.44;;;-1.57;56.89
84859;BME280;75115;42.984;23.244;2024-01-30T03:33:59;97272.38;;;-1.57;57.34
84859;BME280;75115;42.984;23.244;2024-01-30T03:36:24;97269.78;;;-1.55;56.75
84859;BME280;75115;42.984;23.244;2024-01-30T03:38:50;97269.78;;;-1.55;56.15
84859;BME280;75115;42.984;23.244;2024-01-30T03:41:15;97262.19;;;-1.57;57.59
84859;BME280;75115;42.984;23.244;2024-01-30T03:43:41;97253.81;;;-1.60;56.76
84859;BME280;75115;42.984;23.244;2024-01-30T03:46:06;97267.41;;;-1.60;56.64
84859;BME280;75115;42.984;23.244;2024-01-30T03:48:32;97262.97;;;-1.55;57.64
84859;BME280;75115;42.984;23.244;2024-01-30T03:50:57;97253.47;;;-1.49;56.07
84859;BME280;75115;42.984;23.244;2024-01-30T03:53:23;97262.09;;;-1.54;56.21
84859;BME280;75115;42.984;23.244;2024-01-30T03:55:48;97264.59;;;-1.52;57.08
84859;BME280;75115;42.984;23.244;2024-01-30T03:58:13;97260.38;;;-1.53;56.51
84859;BME280;75115;42.984;23.244;2024-01-30T04:00:39;97256.84;;;-1.49;55.95
84859;BME280;75115;42.984;23.244;2024-01-30T04:03:06;97267.84;;;-1.47;56.38
84859;BME280;75115;42.984;23.244;2024-01-30T04:05:31;97267.03;;;-1.49;56.21
84859;BME280;75115;42.984;23.244;2024-01-30T04:07:57;97254.47;;;-1.54;56.13
84859;BME280;75115;42.984;23.244;2024-01-30T04:10:23;97254.47;;;-1.54;56.13
84859;BME280;75115;42.984;23.244;2024-01-30T04:12:49;97258.34;;;-1.43;55.74
84859;BME280;75115;42.984;23.244;2024-01-30T04:15:14;97264.25;;;-1.41;55.85
84859;BME280;75115;42.984;23.244;2024-01-30T04:17:40;97261.28;;;-1.54;55.85
84859;BME280;75115;42.984;23.244;2024-01-30T04:20:06;97264.56;;;-1.51;56.11
84859;BME280;75115;42.984;23.244;2024-01-30T04:22:32;97264.84;;;-1.60;56.72
84859;BME280;75115;42.984;23.244;2024-01-30T04:24:57;97260.53;;;-1.58;56.13
84859;BME280;75115;42.984;23.244;2024-01-30T04:27:22;97260.53;;;-1.58;56.35
84859;BME280;75115;42.984;23.244;2024-01-30T04:29:48;97268.00;;;-1.53;56.19
84859;BME280;75115;42.984;23.244;2024-01-30T04:32:14;97266.50;;;-1.59;56.17
84859;BME280;75115;42.984;23.244;2024-01-30T04:34:39;97270.78;;;-1.59;56.80
84859;BME280;75115;42.984;23.244;2024-01-30T04:37:04;97272.28;;;-1.54;56.97
84859;BME280;75115;42.984;23.244;2024-01-30T04:39:30;97275.78;;;-1.58;55.75
84859;BME280;75115;42.984;23.244;2024-01-30T04:41:55;97267.47;;;-1.63;56.06
84859;BME280;75115;42.984;23.244;2024-01-30T04:44:20;97273.16;;;-1.55;57.35
84859;BME280;75115;42.984;23.244;2024-01-30T04:46:46;97272.19;;;-1.51;55.43
84859;BME280;75115;42.984;23.244;2024-01-30T04:49:11;97264.63;;;-1.54;55.82
84859;BME280;75115;42.984;23.244;2024-01-30T04:51:37;97261.50;;;-1.62;55.08
84859;BME280;75115;42.984;23.244;2024-01-30T04:54:03;97270.78;;;-1.59;56.09
84859;BME280;75115;42.984;23.244;2024-01-30T04:56:28;97270.78;;;-1.59;56.60
84859;BME280;75115;42.984;23.244;2024-01-30T04:58:53;97273.31;;;-1.59;56.36
84859;BME280;75115;42.984;23.244;2024-01-30T05:01:19;97277.66;;;-1.63;56.35
84859;BME280;75115;42.984;23.244;2024-01-30T05:03:44;97282.09;;;-1.69;57.09
84859;BME280;75115;42.984;23.244;2024-01-30T05:06:10;97291.13;;;-1.59;56.06
84859;BME280;75115;42.984;23.244;2024-01-30T05:08:35;97285.28;;;-1.63;56.46
84859;BME280;75115;42.984;23.244;2024-01-30T05:11:02;97292.13;;;-1.65;57.21
84859;BME280;75115;42.984;23.244;2024-01-30T05:13:31;97294.72;;;-1.66;57.42
84859;BME280;75115;42.984;23.244;2024-01-30T05:15:56;97287.16;;;-1.68;57.19
84859;BME280;75115;42.984;23.244;2024-01-30T05:18:22;97292.38;;;-1.72;57.82
84859;BME280;75115;42.984;23.244;2024-01-30T05:20:48;97292.19;;;-1.66;57.81
84859;BME280;75115;42.984;23.244;2024-01-30T05:23:13;97288.88;;;-1.68;58.06
84859;BME280;75115;42.984;23.244;2024-01-30T05:25:39;97290.63;;;-1.70;57.61
84859;BME280;75115;42.984;23.244;2024-01-30T05:28:05;97295.66;;;-1.69;57.81
84859;BME280;75115;42.984;23.244;2024-01-30T05:30:30;97289.63;;;-1.66;57.98
84859;BME280;75115;42.984;23.244;2024-01-30T05:32:55;97294.38;;;-1.82;58.28
84859;BME280;75115;42.984;23.244;2024-01-30T05:35:21;97291.06;;;-1.86;58.63
84859;BME280;75115;42.984;23.244;2024-01-30T05:37:48;97289.47;;;-1.88;59.04
84859;BME280;75115;42.984;23.244;2024-01-30T05:40:14;97300.53;;;-1.89;59.31
84859;BME280;75115;42.984;23.244;2024-01-30T05:42:39;97302.94;;;-1.85;58.56
84859;BME280;75115;42.984;23.244;2024-01-30T05:45:05;97311.34;;;-1.83;58.57
84859;BME280;75115;42.984;23.244;2024-01-30T05:47:30;97301.38;;;-1.89;59.76
84859;BME280;75115;42.984;23.244;2024-01-30T05:49:56;97305.22;;;-1.77;58.89
84859;BME280;75115;42.984;23.244;2024-01-30T05:52:21;97305.47;;;-1.85;58.76
84859;BME280;75115;42.984;23.244;2024-01-30T05:54:47;97302.88;;;-1.83;57.84
84859;BME280;75115;42.984;23.244;2024-01-30T05:57:12;97299.31;;;-1.78;58.77
84859;BME280;75115;42.984;23.244;2024-01-30T05:59:37;97301.81;;;-1.76;58.26
84859;BME280;75115;42.984;23.244;2024-01-30T06:02:03;97281.47;;;-1.76;56.81
84859;BME280;75115;42.984;23.244;2024-01-30T06:04:28;97294.66;;;-1.65;56.83
84859;BME280;75115;42.984;23.244;2024-01-30T06:06:54;97308.34;;;-1.67;57.37
84859;BME280;75115;42.984;23.244;2024-01-30T06:09:19;97296.38;;;-1.65;57.30
84859;BME280;75115;42.984;23.244;2024-01-30T06:11:44;97302.03;;;-1.56;56.95
84859;BME280;75115;42.984;23.244;2024-01-30T06:14:10;97311.34;;;-1.55;57.39
84859;BME280;75115;42.984;23.244;2024-01-30T06:16:35;97305.34;;;-1.54;55.71
84859;BME280;75115;42.984;23.244;2024-01-30T06:19:00;97306.69;;;-1.42;55.36
84859;BME280;75115;42.984;23.244;2024-01-30T06:21:26;97297.44;;;-1.44;56.49
84859;BME280;75115;42.984;23.244;2024-01-30T06:23:51;97309.22;;;-1.42;55.15
84859;BME280;75115;42.984;23.244;2024-01-30T06:26:17;97309.16;;;-1.39;55.40
84859;BME280;75115;42.984;23.244;2024-01-30T06:28:42;97314.25;;;-1.39;54.69
84859;BME280;75115;42.984;23.244;2024-01-30T06:31:07;97318.13;;;-1.29;55.97
84859;BME280;75115;42.984;23.244;2024-01-30T06:33:33;97320.47;;;-1.22;55.21
84859;BME280;75115;42.984;23.244;2024-01-30T06:35:58;97307.72;;;-1.21;54.74
84859;BME280;75115;42.984;23.244;2024-01-30T06:38:23;97320.88;;;-1.08;54.08
84859;BME280;75115;42.984;23.244;2024-01-30T06:40:49;97317.13;;;-0.98;53.68
84859;BME280;75115;42.984;23.244;2024-01-30T06:43:14;97322.03;;;-0.92;52.97
84859;BME280;75115;42.984;23.244;2024-01-30T06:45:40;97316.47;;;-0.78;54.20
84859;BME280;75115;42.984;23.244;2024-01-30T06:48:06;97310.28;;;-0.71;52.36
84859;BME280;75115;42.984;23.244;2024-01-30T06:50:31;97314.25;;;-0.64;52.59
84859;BME280;75115;42.984;23.244;2024-01-30T06:52:57;97306.84;;;-0.70;52.04
84859;BME280;75115;42.984;23.244;2024-01-30T06:55:22;97307.03;;;-0.51;52.92
84859;BME280;75115;42.984;23.244;2024-01-30T06:57:47;97312.44;;;-0.60;51.08
84859;BME280;75115;42.984;23.244;2024-01-30T07:00:13;97309.63;;;-0.53;50.91
84859;BME280;75115;42.984;23.244;2024-01-30T07:02:40;97307.28;;;-0.34;50.61
84859;BME280;75115;42.984;23.244;2024-01-30T07:05:05;97306.19;;;-0.05;49.81
84859;BME280;75115;42.984;23.244;2024-01-30T07:07:30;97300.59;;;0.31;47.31
84859;BME280;75115;42.984;23.244;2024-01-30T07:09:56;97308.63;;;1.07;46.23
84859;BME280;75115;42.984;23.244;2024-01-30T07:12:25;97306.28;;;1.22;45.72
84859;BME280;75115;42.984;23.244;2024-01-30T07:14:51;97309.38;;;0.88;45.91
84859;BME280;75115;42.984;23.244;2024-01-30T07:17:17;97308.88;;;1.21;45.28
84859;BME280;75115;42.984;23.244;2024-01-30T07:19:42;97313.03;;;1.03;45.07
84859;BME280;75115;42.984;23.244;2024-01-30T07:22:08;97311.50;;;0.99;45.19
84859;BME280;75115;42.984;23.244;2024-01-30T07:24:34;97317.84;;;1.11;44.89
84859;BME280;75115;42.984;23.244;2024-01-30T07:26:59;97318.22;;;1.02;44.46
84859;BME280;75115;42.984;23.244;2024-01-30T07:29:24;97320.44;;;0.89;45.28
84859;BME280;75115;42.984;23.244;2024-01-30T07:31:50;97328.09;;;0.89;45.22
84859;BME280;75115;42.984;23.244;2024-01-30T07:34:15;97330.41;;;0.95;45.95
84859;BME280;75115;42.984;23.244;2024-01-30T07:36:41;97335.44;;;0.76;45.77
84859;BME280;75115;42.984;23.244;2024-01-30T07:39:06;97328.09;;;0.89;46.13
84859;BME280;75115;42.984;23.244;2024-01-30T07:41:32;97331.06;;;0.78;45.65
84859;BME280;75115;42.984;23.244;2024-01-30T07:43:57;97333.56;;;0.80;45.40
84859;BME280;75115;42.984;23.244;2024-01-30T07:46:23;97327.47;;;0.40;46.42
84859;BME280;75115;42.984;23.244;2024-01-30T07:48:48;97339.31;;;0.42;46.28
84859;BME280;75115;42.984;23.244;2024-01-30T07:51:14;97331.69;;;0.41;46.41
84859;BME280;75115;42.984;23.244;2024-01-30T07:53:42;97325.56;;;0.45;46.08
84859;BME280;75115;42.984;23.244;2024-01-30T07:56:07;97331.03;;;0.14;46.96
84859;BME280;75115;42.984;23.244;2024-01-30T07:58:32;97329.94;;;0.19;46.36
84859;BME280;75115;42.984;23.244;2024-01-30T08:00:58;97336.75;;;0.42;46.46
84859;BME280;75115;42.984;23.244;2024-01-30T08:03:24;97337.50;;;0.44;46.73
84859;BME280;75115;42.984;23.244;2024-01-30T08:05:49;97331.16;;;0.33;47.21
84859;BME280;75115;42.984;23.244;2024-01-30T08:08:14;97339.22;;;0.44;47.60
84859;BME280;75115;42.984;23.244;2024-01-30T08:10:40;97333.97;;;0.03;47.95
84859;BME280;75115;42.984;23.244;2024-01-30T08:13:05;97334.47;;;0.13;48.05
84859;BME280;75115;42.984;23.244;2024-01-30T08:15:31;97343.00;;;0.34;48.00
84859;BME280;75115;42.984;23.244;2024-01-30T08:17:56;97349.94;;;0.08;48.79
84859;BME280;75115;42.984;23.244;2024-01-30T08:20:26;97341.44;;;0.31;48.73
84859;BME280;75115;42.984;23.244;2024-01-30T08:22:51;97347.53;;;0.49;47.95
84859;BME280;75115;42.984;23.244;2024-01-30T08:25:17;97333.88;;;0.28;48.39
84859;BME280;75115;42.984;23.244;2024-01-30T08:27:42;97331.88;;;0.36;48.59
84859;BME280;75115;42.984;23.244;2024-01-30T08:30:08;97333.66;;;0.34;48.96
84859;BME280;75115;42.984;23.244;2024-01-30T08:32:34;97333.28;;;0.21;48.97
84859;BME280;75115;42.984;23.244;2024-01-30T08:34:59;97335.59;;;0.49;48.78
84859;BME280;75115;42.984;23.244;2024-01-30T08:37:29;97328.91;;;0.47;47.96
84859;BME280;75115;42.984;23.244;2024-01-30T08:39:54;97328.00;;;0.26;48.37
84859;BME280;75115;42.984;23.244;2024-01-30T08:42:20;97330.84;;;0.18;48.54
84859;BME280;75115;42.984;23.244;2024-01-30T08:44:51;97334.34;;;0.38;48.83
84859;BME280;75115;42.984;23.244;2024-01-30T08:47:17;97334.47;;;0.57;47.91
84859;BME280;75115;42.984;23.244;2024-01-30T08:49:43;97331.50;;;0.67;47.84
84859;BME280;75115;42.984;23.244;2024-01-30T08:52:12;97343.84;;;0.78;48.00
84859;BME280;75115;42.984;23.244;2024-01-30T08:54:38;97341.59;;;0.70;48.16
84859;BME280;75115;42.984;23.244;2024-01-30T08:57:04;97333.75;;;0.75;47.96
84859;BME280;75115;42.984;23.244;2024-01-30T08:59:30;97348.06;;;0.79;47.13
84859;BME280;75115;42.984;23.244;2024-01-30T09:01:55;97336.97;;;0.80;48.09
84859;BME280;75115;42.984;23.244;2024-01-30T09:04:23;97321.47;;;0.63;46.89
84859;BME280;75115;42.984;23.244;2024-01-30T09:06:48;97336.25;;;0.55;47.00
84859;BME280;75115;42.984;23.244;2024-01-30T09:09:14;97346.72;;;0.27;47.70
84859;BME280;75115;42.984;23.244;2024-01-30T09:11:40;97343.38;;;0.24;48.31
84859;BME280;75115;42.984;23.244;2024-01-30T09:14:05;97346.38;;;0.12;48.07
84859;BME280;75115;42.984;23.244;2024-01-30T09:16:31;97339.50;;;0.14;48.87
84859;BME280;75115;42.984;23.244;2024-01-30T09:18:56;97328.56;;;0.34;48.37
84859;BME280;75115;42.984;23.244;2024-01-30T09:21:21;97327.00;;;0.30;47.74
84859;BME280;75115;42.984;23.244;2024-01-30T09:23:47;97333.00;;;0.51;47.67
84859;BME280;75115;42.984;23.244;2024-01-30T09:26:12;97326.34;;;0.69;47.11
84859;BME280;75115;42.984;23.244;2024-01-30T09:28:38;97328.19;;;0.65;46.62
84859;BME280;75115;42.984;23.244;2024-01-30T09:31:03;97322.72;;;0.53;47.70
84859;BME280;75115;42.984;23.244;2024-01-30T09:33:29;97323.47;;;0.55;48.25
84859;BME280;75115;42.984;23.244;2024-01-30T09:35:54;97322.00;;;0.49;47.76
84859;BME280;75115;42.984;23.244;2024-01-30T09:38:20;97322.09;;;0.47;47.80
84859;BME280;75115;42.984;23.244;2024-01-30T09:40:51;97326.94;;;0.32;48.28
84859;BME280;75115;42.984;23.244;2024-01-30T09:43:22;97322.84;;;0.28;47.85
84859;BME280;75115;42.984;23.244;2024-01-30T09:45:48;97317.34;;;0.38;47.20
84859;BME280;75115;42.984;23.244;2024-01-30T09:48:15;97320.94;;;0.33;47.47
84859;BME280;75115;42.984;23.244;2024-01-30T09:50:41;97315.31;;;0.46;47.93
84859;BME280;75115;42.984;23.244;2024-01-30T09:53:08;97308.94;;;0.57;46.91
84859;BME280;75115;42.984;23.244;2024-01-30T09:55:35;97322.69;;;0.74;48.23
84859;BME280;75115;42.984;23.244;2024-01-30T09:58:01;97310.06;;;0.92;47.31
84859;BME280;75115;42.984;23.244;2024-01-30T10:00:26;97311.34;;;0.82;46.80
84859;BME280;75115;42.984;23.244;2024-01-30T10:02:53;97307.50;;;0.71;46.89
84859;BME280;75115;42.984;23.244;2024-01-30T10:05:19;97305.66;;;0.75;46.61
84859;BME280;75115;42.984;23.244;2024-01-30T10:07:56;97302.59;;;0.45;46.72
84859;BME280;75115;42.984;23.244;2024-01-30T10:10:25;97307.06;;;0.40;47.39
84859;BME280;75115;42.984;23.244;2024-01-30T10:12:51;97307.88;;;0.40;47.85
84859;BME280;75115;42.984;23.244;2024-01-30T10:15:17;97302.66;;;0.43;48.05
84859;BME280;75115;42.984;23.244;2024-01-30T10:17:44;97293.66;;;0.35;47.66
84859;BME280;75115;42.984;23.244;2024-01-30T10:20:10;97296.06;;;0.38;47.75
84859;BME280;75115;42.984;23.244;2024-01-30T10:22:35;97298.16;;;0.28;49.04
84859;BME280;75115;42.984;23.244;2024-01-30T10:25:01;97285.09;;;0.36;48.44
84859;BME280;75115;42.984;23.244;2024-01-30T10:27:26;97284.31;;;0.34;47.82
84859;BME280;75115;42.984;23.244;2024-01-30T10:29:52;97282.25;;;0.43;48.56
84859;BME280;75115;42.984;23.244;2024-01-30T10:32:18;97283.16;;;0.42;48.95
84859;BME280;75115;42.984;23.244;2024-01-30T10:34:43;97276.84;;;0.51;49.12
84859;BME280;75115;42.984;23.244;2024-01-30T10:37:12;97284.72;;;0.45;48.69
84859;BME280;75115;42.984;23.244;2024-01-30T10:39:41;97274.25;;;0.31;47.65
84859;BME280;75115;42.984;23.244;2024-01-30T10:42:12;97272.16;;;0.40;49.06
84859;BME280;75115;42.984;23.244;2024-01-30T10:44:44;97274.47;;;0.24;48.52
84859;BME280;75115;42.984;23.244;2024-01-30T10:47:17;97267.94;;;0.39;48.63
84859;BME280;75115;42.984;23.244;2024-01-30T10:49:43;97263.66;;;0.40;48.77
84859;BME280;75115;42.984;23.244;2024-01-30T10:52:12;97254.88;;;0.25;48.93
84859;BME280;75115;42.984;23.244;2024-01-30T10:54:40;97254.56;;;0.33;49.38
84859;BME280;75115;42.984;23.244;2024-01-30T10:57:10;97245.19;;;0.33;48.98
84859;BME280;75115;42.984;23.244;2024-01-30T10:59:36;97251.38;;;0.28;49.13
84859;BME280;75115;42.984;23.244;2024-01-30T11:02:02;97244.09;;;0.18;49.90
84859;BME280;75115;42.984;23.244;2024-01-30T11:04:36;97248.00;;;0.27;49.44
84859;BME280;75115;42.984;23.244;2024-01-30T11:07:01;97240.16;;;0.32;48.84
84859;BME280;75115;42.984;23.244;2024-01-30T11:09:29;97239.44;;;0.28;49.31
84859;BME280;75115;42.984;23.244;2024-01-30T11:11:58;97241.28;;;0.24;49.36
84859;BME280;75115;42.984;23.244;2024-01-30T11:14:26;97240.91;;;0.13;49.02
84859;BME280;75115;42.984;23.244;2024-01-30T11:16:51;97238.00;;;0.21;50.23
84859;BME280;75115;42.984;23.244;2024-01-30T11:19:24;97236.78;;;0.31;49.55
84859;BME280;75115;42.984;23.244;2024-01-30T11:21:55;97238.03;;;0.43;49.42
84859;BME280;75115;42.984;23.244;2024-01-30T11:24:23;97223.16;;;0.53;49.10
84859;BME280;75115;42.984;23.244;2024-01-30T11:26:55;97229.16;;;0.52;48.83
84859;BME280;75115;42.984;23.244;2024-01-30T11:29:24;97220.78;;;0.48;48.73
84859;BME280;75115;42.984;23.244;2024-01-30T11:31:54;97215.22;;;0.38;48.18
84859;BME280;75115;42.984;23.244;2024-01-30T11:34:20;97225.13;;;0.46;48.83
84859;BME280;75115;42.984;23.244;2024-01-30T11:36:55;97221.81;;;0.44;49.14
84859;BME280;75115;42.984;23.244;2024-01-30T11:39:25;97216.41;;;0.52;48.88
84859;BME280;75115;42.984;23.244;2024-01-30T11:41:51;97212.31;;;0.47;48.25
84859;BME280;75115;42.984;23.244;2024-01-30T11:44:18;97205.97;;;0.36;49.06
84859;BME280;75115;42.984;23.244;2024-01-30T11:46:43;97199.72;;;0.43;48.97
84859;BME280;75115;42.984;23.244;2024-01-30T11:49:09;97197.03;;;0.46;49.01
84859;BME280;75115;42.984;23.244;2024-01-30T11:51:34;97190.03;;;0.51;49.13
84859;BME280;75115;42.984;23.244;2024-01-30T11:54:00;97182.03;;;0.59;49.34
84859;BME280;75115;42.984;23.244;2024-01-30T11:56:25;97181.00;;;0.63;48.85
84859;BME280;75115;42.984;23.244;2024-01-30T11:58:52;97180.00;;;0.67;48.36
84859;BME280;75115;42.984;23.244;2024-01-30T12:01:17;97163.53;;;0.54;49.08
84859;BME280;75115;42.984;23.244;2024-01-30T12:03:49;97174.31;;;0.60;47.86
84859;BME280;75115;42.984;23.244;2024-01-30T12:06:15;97165.56;;;0.66;48.77
84859;BME280;75115;42.984;23.244;2024-01-30T12:08:41;97165.56;;;0.66;48.42
84859;BME280;75115;42.984;23.244;2024-01-30T12:11:06;97163.44;;;0.75;48.56
84859;BME280;75115;42.984;23.244;2024-01-30T12:13:32;97157.66;;;0.72;48.07
84859;BME280;75115;42.984;23.244;2024-01-30T12:15:57;97171.13;;;0.75;48.04
84859;BME280;75115;42.984;23.244;2024-01-30T12:18:23;97172.41;;;0.65;48.36
84859;BME280;75115;42.984;23.244;2024-01-30T12:21:01;97171.19;;;0.74;48.74
84859;BME280;75115;42.984;23.244;2024-01-30T12:23:27;97188.63;;;0.85;48.15
84859;BME280;75115;42.984;23.244;2024-01-30T12:25:53;97164.34;;;0.74;48.59
84859;BME280;75115;42.984;23.244;2024-01-30T12:28:20;97160.84;;;0.77;48.65
84859;BME280;75115;42.984;23.244;2024-01-30T12:30:45;97159.53;;;0.87;48.85
84859;BME280;75115;42.984;23.244;2024-01-30T12:33:19;97156.66;;;0.95;48.04
84859;BME280;75115;42.984;23.244;2024-01-30T12:35:48;97151.34;;;0.99;48.20
84859;BME280;75115;42.984;23.244;2024-01-30T12:38:14;97147.56;;;1.08;48.54
84859;BME280;75115;42.984;23.244;2024-01-30T12:40:40;97146.25;;;0.99;48.40
84859;BME280;75115;42.984;23.244;2024-01-30T12:43:05;97150.31;;;1.04;48.16
84859;BME280;75115;42.984;23.244;2024-01-30T12:45:30;97135.72;;;0.87;48.42
84859;BME280;75115;42.984;23.244;2024-01-30T12:47:56;97142.16;;;0.95;48.90
84859;BME280;75115;42.984;23.244;2024-01-30T12:50:21;97137.97;;;0.94;48.27